Time;durP1;ratioP1;P1;durP2;ratioP2;P2;SDS_P1;SDS_P2;PMS_P1;PMS_P2;Temp;Humidity;BMP_temperature;BMP_pressure;BME280_temperature;BME280_humidity;BME280_pressure;Samples;Min_cycle;Max_cycle;Signal;HPM_P1;HPM_P2
2022/10/19 00:01:40;;;;;;;;;12.67;8.67;;;;;17.02;84.26;101890.75;5070497;28;45375;-68
2022/10/19 00:04:06;;;;;;;;;9.00;8.67;;;;;16.91;84.44;101869.66;5073217;28;45505;-70
2022/10/19 00:06:34;;;;;;;;;10.00;9.33;;;;;16.98;84.33;101870.50;5073992;28;45361;-69
2022/10/19 00:09:06;;;;;;;;;7.67;7.67;;;;;16.98;84.52;101864.31;5055034;28;45982;-67
2022/10/19 00:11:33;;;;;;;;;10.33;9.33;;;;;17.05;84.44;101879.28;5075344;28;45358;-67
2022/10/19 00:14:00;;;;;;;;;9.33;7.67;;;;;17.01;84.03;101867.81;5077911;28;45334;-66
2022/10/19 00:16:30;;;;;;;;;7.67;7.00;;;;;17.03;83.98;101876.63;5077277;28;45227;-73
2022/10/19 00:18:57;;;;;;;;;9.33;8.33;;;;;16.83;83.96;101834.44;5076946;27;45675;-69
2022/10/19 00:21:23;;;;;;;;;8.00;7.33;;;;;17.05;83.75;101868.69;5077456;28;45364;-67
2022/10/19 00:23:49;;;;;;;;;8.67;7.33;;;;;17.08;83.70;101871.31;5059495;28;45388;-66
2022/10/19 00:26:15;;;;;;;;;11.33;8.33;;;;;17.03;84.09;101870.47;5077760;28;45446;-68
2022/10/19 00:28:41;;;;;;;;;6.67;6.67;;;;;17.01;84.15;101862.53;5077313;28;46878;-70
2022/10/19 00:31:12;;;;;;;;;10.00;8.67;;;;;17.02;84.06;101863.44;5060850;28;45436;-69
2022/10/19 00:33:39;;;;;;;;;9.33;8.67;;;;;16.88;84.02;101837.91;5063514;28;45943;-68
2022/10/19 00:36:13;;;;;;;;;8.33;7.00;;;;;17.05;83.76;101863.41;5072874;28;45476;-67
2022/10/19 00:38:40;;;;;;;;;11.67;8.33;;;;;16.85;83.52;101819.44;5072698;28;45402;-71
2022/10/19 00:41:06;;;;;;;;;8.00;6.00;;;;;16.99;83.97;101842.25;5072910;27;45367;-68
2022/10/19 00:43:31;;;;;;;;;8.00;7.00;;;;;16.93;84.05;101844.06;5067108;28;45529;-66
2022/10/19 00:45:57;;;;;;;;;10.67;8.67;;;;;16.93;83.98;101832.59;5064507;28;45647;-68
2022/10/19 00:48:31;;;;;;;;;8.67;8.67;;;;;16.94;84.10;101835.25;5072930;27;46294;-69
2022/10/19 00:50:59;;;;;;;;;8.00;6.00;;;;;16.90;83.99;101822.91;5072915;28;45458;-67
2022/10/19 00:53:28;;;;;;;;;9.67;8.67;;;;;16.91;83.95;101831.72;5075659;28;45451;-67
2022/10/19 00:55:54;;;;;;;;;7.67;7.00;;;;;16.89;83.83;101810.56;5063489;28;45482;-67
2022/10/19 00:58:20;;;;;;;;;9.00;7.00;;;;;16.84;83.85;101811.50;5069006;28;45440;-67
2022/10/19 01:00:46;;;;;;;;;10.67;8.67;;;;;16.89;83.96;101823.78;5057782;27;45293;-67
2022/10/19 01:03:12;;;;;;;;;11.00;9.33;;;;;16.92;83.86;101821.16;5072488;28;45359;-67
2022/10/19 01:05:38;;;;;;;;;13.67;9.67;;;;;16.75;84.02;101796.50;5058156;28;45445;-66
2022/10/19 01:08:05;;;;;;;;;10.67;8.67;;;;;16.90;83.68;101820.28;5072047;28;45829;-66
2022/10/19 01:10:48;;;;;;;;;7.67;7.67;;;;;16.90;83.76;101822.03;5072239;28;45469;-67
2022/10/19 01:13:17;;;;;;;;;9.33;8.33;;;;;16.92;83.70;101826.44;5072961;28;45722;-67
2022/10/19 01:16:05;;;;;;;;;7.00;6.00;;;;;16.79;83.90;101806.22;5066729;28;45492;-68
2022/10/19 01:18:44;;;;;;;;;13.33;10.00;;;;;16.87;83.90;101815.00;5070405;27;46337;-70
2022/10/19 01:21:30;;;;;;;;;11.33;8.33;;;;;16.84;83.97;101822.94;5064829;28;45673;-66
2022/10/19 01:24:15;;;;;;;;;15.67;9.33;;;;;16.80;84.23;101820.31;5046938;28;45388;-67
2022/10/19 01:26:58;;;;;;;;;9.67;8.33;;;;;16.80;84.37;101817.69;5071661;28;45480;-67
2022/10/19 01:29:29;;;;;;;;;8.67;8.67;;;;;16.77;84.19;101815.03;5061144;28;45529;-68
2022/10/19 01:32:05;;;;;;;;;10.67;10.33;;;;;16.73;84.25;101808.91;5079179;27;45473;-70
2022/10/19 01:34:56;;;;;;;;;9.00;7.00;;;;;16.71;84.28;101808.91;5079981;28;45346;-70
2022/10/19 01:37:39;;;;;;;;;9.00;8.33;;;;;16.71;84.36;101808.03;5061281;28;45476;-66
2022/10/19 01:40:27;;;;;;;;;7.00;7.00;;;;;16.74;84.23;101813.28;5079124;28;45365;-66
2022/10/19 01:43:20;;;;;;;;;8.67;8.00;;;;;16.74;84.49;101810.63;5062283;28;45387;-65
2022/10/19 01:46:22;;;;;;;;;8.00;8.00;;;;;16.73;84.29;101803.59;5057483;28;45716;-68
2022/10/19 01:48:57;;;;;;;;;11.67;9.33;;;;;16.58;84.25;101788.69;5042551;27;45453;-70
2022/10/19 01:51:39;;;;;;;;;10.00;8.67;;;;;16.64;84.31;101793.09;5076349;28;45400;-69
2022/10/19 01:54:11;;;;;;;;;7.67;6.00;;;;;16.69;84.13;101793.94;5079403;27;45453;-67
2022/10/19 01:56:41;;;;;;;;;9.00;7.00;;;;;16.70;84.21;101793.94;5090760;27;45464;-69
2022/10/19 01:59:09;;;;;;;;;8.67;8.67;;;;;16.71;84.23;101789.50;5075409;28;45595;-68
2022/10/19 02:01:40;;;;;;;;;9.67;9.67;;;;;16.68;84.30;101789.50;5075057;28;45662;-68
2022/10/19 02:04:06;;;;;;;;;6.67;6.33;;;;;16.60;84.42;101775.47;5071144;27;45413;-72
2022/10/19 02:06:32;;;;;;;;;10.00;7.33;;;;;16.61;84.61;101769.28;5064156;28;45490;-71
2022/10/19 02:08:57;;;;;;;;;9.33;8.33;;;;;16.69;84.35;101775.41;5075546;28;45753;-68
2022/10/19 02:11:23;;;;;;;;;6.67;5.33;;;;;16.65;84.65;101774.53;5078980;27;46087;-72
2022/10/19 02:13:55;;;;;;;;;13.00;8.67;;;;;16.53;84.40;101764.03;5079028;28;45465;-67
2022/10/19 02:16:29;;;;;;;;;6.00;5.33;;;;;16.63;84.71;101775.44;5075211;28;45351;-71
2022/10/19 02:18:57;;;;;;;;;9.00;7.33;;;;;16.61;84.57;101764.88;5075423;27;45608;-71
2022/10/19 02:21:24;;;;;;;;;7.33;7.33;;;;;16.60;84.89;101765.75;5074760;28;46713;-68
2022/10/19 02:23:50;;;;;;;;;9.33;8.67;;;;;16.42;84.74;101745.63;5075141;28;45440;-66
2022/10/19 02:26:15;;;;;;;;;9.67;8.67;;;;;16.49;84.92;101757.00;5053823;28;45754;-67
2022/10/19 02:28:41;;;;;;;;;9.33;9.33;;;;;16.48;84.72;101748.19;5068820;28;45332;-68
2022/10/19 02:31:06;;;;;;;;;8.33;7.33;;;;;16.46;84.95;101744.69;5074569;28;46207;-69
2022/10/19 02:33:32;;;;;;;;;6.33;6.00;;;;;16.50;84.73;101751.72;5074395;28;45339;-67
2022/10/19 02:35:59;;;;;;;;;7.00;7.00;;;;;16.41;84.92;101735.91;5074836;28;45815;-69
2022/10/19 02:38:25;;;;;;;;;8.00;8.00;;;;;16.45;84.61;101735.00;5073820;28;45677;-66
2022/10/19 02:41:15;;;;;;;;;8.00;7.33;;;;;16.46;84.42;101736.75;5074754;28;46204;-67
2022/10/19 02:43:44;;;;;;;;;8.67;8.67;;;;;16.48;84.45;101742.91;5072037;28;46703;-67
2022/10/19 02:46:43;;;;;;;;;8.67;7.67;;;;;16.46;84.63;101734.09;5056781;28;45887;-67
2022/10/19 02:49:11;;;;;;;;;8.67;7.00;;;;;16.44;84.91;101730.59;5076807;28;45339;-67
2022/10/19 02:51:39;;;;;;;;;9.33;6.33;;;;;16.46;84.78;101726.16;5078642;28;45906;-66
2022/10/19 02:54:06;;;;;;;;;9.33;6.00;;;;;16.51;84.66;101723.50;5078729;27;45299;-67
2022/10/19 02:56:33;;;;;;;;;7.00;7.00;;;;;16.50;84.28;101716.47;5078982;28;45290;-67
2022/10/19 02:59:00;;;;;;;;;7.00;6.33;;;;;16.53;84.28;101713.78;5078762;28;45426;-68
2022/10/19 03:01:26;;;;;;;;;7.67;6.00;;;;;16.52;84.47;101710.28;5064713;28;45719;-69
2022/10/19 03:03:51;;;;;;;;;5.67;5.00;;;;;16.54;84.07;101702.34;5077667;28;45375;-68
2022/10/19 03:06:17;;;;;;;;;7.33;5.00;;;;;16.56;84.11;101705.84;5074706;28;45458;-67
2022/10/19 03:08:43;;;;;;;;;8.00;6.00;;;;;16.39;83.70;101673.34;5060497;28;45382;-68
2022/10/19 03:11:08;;;;;;;;;8.67;5.00;;;;;16.54;84.46;101699.69;5078334;28;46224;-66
2022/10/19 03:13:34;;;;;;;;;6.00;6.00;;;;;16.56;84.10;101692.59;5072234;28;45244;-68
2022/10/19 03:16:08;;;;;;;;;9.33;6.33;;;;;16.57;83.88;101693.50;5069980;28;45504;-67
2022/10/19 03:18:33;;;;;;;;;5.33;5.00;;;;;16.48;84.02;101686.50;5074266;27;45442;-66
2022/10/19 03:21:09;;;;;;;;;7.00;7.00;;;;;16.55;83.87;101696.16;5072274;27;45726;-66
2022/10/19 03:23:35;;;;;;;;;9.00;7.67;;;;;16.48;83.98;101686.50;5063248;28;45719;-66
2022/10/19 03:26:01;;;;;;;;;6.00;6.00;;;;;16.43;83.98;101673.31;5062659;28;45533;-67
2022/10/19 03:28:27;;;;;;;;;8.00;8.00;;;;;16.43;83.86;101677.75;5064325;28;45541;-66
2022/10/19 03:30:53;;;;;;;;;7.33;6.00;;;;;16.39;84.03;101666.28;5062180;28;46992;-66
2022/10/19 03:33:18;;;;;;;;;7.00;5.67;;;;;16.38;83.97;101664.56;5069356;27;45519;-67
2022/10/19 03:35:44;;;;;;;;;6.33;6.33;;;;;16.44;84.02;101675.06;5057938;28;45247;-66
2022/10/19 03:38:10;;;;;;;;;6.00;6.00;;;;;16.45;83.81;101670.69;5055637;28;46361;-66
2022/10/19 03:40:35;;;;;;;;;9.33;7.67;;;;;16.39;83.67;101663.66;5056251;28;45629;-68
2022/10/19 03:43:01;;;;;;;;;6.00;6.00;;;;;16.37;84.07;101669.84;5065404;28;45410;-66
2022/10/19 03:45:26;;;;;;;;;9.33;7.00;;;;;16.38;84.26;101677.78;5055230;28;45723;-67
2022/10/19 03:47:52;;;;;;;;;6.67;6.67;;;;;16.37;84.18;101678.63;5073064;28;45490;-69
2022/10/19 03:50:18;;;;;;;;;7.00;6.00;;;;;16.34;84.39;101657.53;5059413;28;45749;-64
2022/10/19 03:52:43;;;;;;;;;10.67;7.33;;;;;16.27;84.27;101647.88;5053969;28;45410;-67
2022/10/19 03:55:10;;;;;;;;;8.67;7.00;;;;;16.30;84.59;101663.72;5055488;28;45400;-66
2022/10/19 03:57:36;;;;;;;;;9.67;7.67;;;;;16.26;84.81;101665.50;5077074;28;45236;-68
2022/10/19 04:00:04;;;;;;;;;8.33;8.33;;;;;16.21;84.45;101655.88;5077722;28;46419;-67
2022/10/19 04:02:29;;;;;;;;;9.33;8.33;;;;;16.27;84.83;101667.25;5075944;27;45472;-67
2022/10/19 04:04:56;;;;;;;;;7.00;6.33;;;;;16.23;84.73;101665.53;5073307;28;45524;-68
2022/10/19 04:07:22;;;;;;;;;7.33;6.33;;;;;16.28;84.74;101668.16;5073324;28;45485;-67
2022/10/19 04:09:47;;;;;;;;;9.33;8.00;;;;;16.25;84.84;101666.41;5067175;28;46024;-67
2022/10/19 04:12:13;;;;;;;;;17.00;12.67;;;;;16.22;84.78;101654.97;5058948;28;45744;-69
2022/10/19 04:14:39;;;;;;;;;9.33;9.33;;;;;16.26;84.77;101672.56;5075034;28;45281;-67
2022/10/19 04:17:04;;;;;;;;;12.33;9.33;;;;;16.20;84.69;101660.25;5077857;27;45485;-66
2022/10/19 04:19:31;;;;;;;;;11.67;9.67;;;;;16.25;84.86;101668.16;5077542;28;45392;-67
2022/10/19 04:21:57;;;;;;;;;9.33;7.00;;;;;16.23;84.83;101670.81;5077592;28;45393;-66
2022/10/19 04:24:22;;;;;;;;;15.33;10.33;;;;;16.23;85.13;101672.56;5064289;28;45422;-66
2022/10/19 04:26:51;;;;;;;;;12.33;10.00;;;;;16.16;84.74;101661.19;5075671;27;45466;-66
2022/10/19 04:29:19;;;;;;;;;10.00;8.67;;;;;16.15;84.87;101659.41;5058720;28;45438;-67
2022/10/19 04:31:48;;;;;;;;;11.00;9.00;;;;;16.19;85.19;101668.22;5073313;28;45425;-66
2022/10/19 04:34:13;;;;;;;;;12.33;9.00;;;;;16.21;85.04;101655.88;5062616;28;45420;-69
2022/10/19 04:36:39;;;;;;;;;11.33;9.33;;;;;16.17;85.30;101648.84;5056535;28;45501;-65
2022/10/19 04:39:05;;;;;;;;;11.67;9.33;;;;;16.23;84.93;101664.63;5073241;28;45682;-65
2022/10/19 04:41:32;;;;;;;;;12.00;9.33;;;;;16.21;85.16;101661.16;5076104;28;45402;-66
2022/10/19 04:43:59;;;;;;;;;9.33;8.67;;;;;16.21;84.99;101664.66;5072983;28;45551;-67
2022/10/19 04:46:26;;;;;;;;;10.00;8.33;;;;;16.13;85.23;101655.91;5088736;27;45737;-67
2022/10/19 04:48:53;;;;;;;;;10.00;9.67;;;;;16.15;85.31;101659.41;5068285;28;46242;-67
2022/10/19 04:51:19;;;;;;;;;12.67;9.33;;;;;16.15;85.60;101651.47;5073997;28;45415;-67
2022/10/19 04:53:45;;;;;;;;;12.00;11.33;;;;;16.10;85.38;101638.28;5071713;28;45513;-67
2022/10/19 04:56:15;;;;;;;;;12.67;11.00;;;;;16.15;85.37;101651.47;5073296;28;45468;-66
2022/10/19 04:58:41;;;;;;;;;11.33;9.00;;;;;16.13;85.33;101636.53;5062447;28;45401;-67
2022/10/19 05:01:13;;;;;;;;;12.00;9.33;;;;;16.08;85.21;101625.97;5075379;28;45512;-67
2022/10/19 05:03:39;;;;;;;;;13.67;11.67;;;;;16.14;85.40;101631.25;5069787;28;45349;-67
2022/10/19 05:06:05;;;;;;;;;15.00;13.33;;;;;16.15;85.28;101622.41;5051028;28;45525;-67
2022/10/19 05:08:32;;;;;;;;;16.33;12.00;;;;;16.09;85.58;101610.13;5060253;27;45582;-67
2022/10/19 05:11:11;;;;;;;;;17.33;11.00;;;;;16.15;85.05;101609.19;5056262;28;45430;-68
2022/10/19 05:13:37;;;;;;;;;11.33;11.00;;;;;16.05;85.54;101595.19;5057297;28;45503;-69
2022/10/19 05:16:05;;;;;;;;;15.67;13.00;;;;;16.05;85.61;101605.75;5076247;27;45389;-69
2022/10/19 05:18:32;;;;;;;;;14.33;10.00;;;;;16.10;85.74;101616.28;5075684;27;46024;-68
2022/10/19 05:21:11;;;;;;;;;11.00;11.00;;;;;16.08;85.67;101610.13;5066537;28;45349;-68
2022/10/19 05:23:38;;;;;;;;;16.33;15.67;;;;;16.04;85.48;101605.75;5077220;28;45372;-68
2022/10/19 05:26:10;;;;;;;;;11.33;9.67;;;;;16.13;85.48;101613.59;5060051;28;45556;-67
2022/10/19 05:28:36;;;;;;;;;10.67;10.67;;;;;16.13;85.38;101607.44;5073761;27;45407;-67
2022/10/19 05:31:10;;;;;;;;;8.67;8.67;;;;;16.14;85.21;101612.75;5074498;27;45959;-67
2022/10/19 05:33:37;;;;;;;;;11.67;10.00;;;;;16.07;85.39;101601.34;5079143;27;45904;-68
2022/10/19 05:36:17;;;;;;;;;11.67;11.00;;;;;16.11;85.33;101597.78;5073465;28;45759;-67
2022/10/19 05:38:44;;;;;;;;;9.33;8.33;;;;;16.02;85.18;101584.63;5054775;28;46266;-66
2022/10/19 05:41:09;;;;;;;;;10.00;9.33;;;;;16.13;85.44;101596.88;5050211;28;45466;-67
2022/10/19 05:43:35;;;;;;;;;14.00;12.00;;;;;16.11;85.20;101586.31;5074119;27;45602;-67
2022/10/19 05:46:07;;;;;;;;;11.00;9.33;;;;;16.15;85.08;101590.69;5076223;28;45596;-67
2022/10/19 05:48:33;;;;;;;;;14.00;11.33;;;;;16.11;84.89;101566.06;5069685;28;45378;-67
2022/10/19 05:51:00;;;;;;;;;11.33;11.00;;;;;16.14;84.68;101574.88;5050174;28;45493;-67
2022/10/19 05:53:27;;;;;;;;;13.33;12.00;;;;;16.13;84.69;101573.97;5071335;27;45786;-67
2022/10/19 05:55:53;;;;;;;;;10.67;10.67;;;;;15.99;84.54;101562.63;5057827;28;45329;-68
2022/10/19 05:58:18;;;;;;;;;16.00;9.33;;;;;15.99;84.75;101563.53;5078338;28;46213;-70
2022/10/19 06:00:50;;;;;;;;;13.33;10.33;;;;;16.08;84.88;101581.06;5075171;28;45406;-70
2022/10/19 06:03:16;;;;;;;;;10.00;10.00;;;;;16.05;84.72;101579.31;5076603;28;45399;-68
2022/10/19 06:05:42;;;;;;;;;3.33;3.33;;;;;16.06;84.93;101578.44;5079900;28;45583;-67
2022/10/19 06:08:07;;;;;;;;;15.33;12.00;;;;;16.03;84.80;101575.81;5077913;27;47072;-67
2022/10/19 07:55:01;;;;;;;;;18.00;16.67;;;;;15.76;87.81;101555.75;5088935;27;45541;-66
2022/10/19 07:57:26;;;;;;;;;21.00;18.00;;;;;15.97;87.44;101562.66;5044631;28;45449;-64
2022/10/19 07:59:52;;;;;;;;;18.00;14.00;;;;;16.20;86.93;101561.59;5043283;28;45628;-64
2022/10/19 08:02:19;;;;;;;;;18.33;15.33;;;;;16.43;85.74;101567.56;5039176;28;45418;-64
2022/10/19 08:04:44;;;;;;;;;16.67;15.67;;;;;16.62;84.96;101567.41;5050465;28;46184;-66
2022/10/19 08:07:10;;;;;;;;;16.67;13.33;;;;;16.86;84.15;101553.06;5037579;28;45852;-65
2022/10/19 08:09:36;;;;;;;;;19.33;16.33;;;;;17.09;82.90;101547.53;5035084;28;45422;-64
2022/10/19 08:12:03;;;;;;;;;19.67;19.67;;;;;17.20;81.07;101542.94;5039559;28;45561;-65
2022/10/19 08:14:29;;;;;;;;;13.67;13.67;;;;;17.41;80.66;101544.44;5032912;27;46151;-65
2022/10/19 08:16:55;;;;;;;;;20.67;16.67;;;;;17.68;79.56;101556.44;5058102;28;45355;-65
2022/10/19 08:19:22;;;;;;;;;20.67;14.33;;;;;17.91;79.08;101556.09;5044971;28;45485;-65
2022/10/19 08:21:49;;;;;;;;;19.67;14.67;;;;;18.06;78.21;101560.31;5042452;28;45391;-64
2022/10/19 08:24:17;;;;;;;;;16.33;15.67;;;;;18.17;77.58;101562.78;5041137;28;46356;-65
2022/10/19 08:26:43;;;;;;;;;12.67;12.67;;;;;18.15;77.19;101533.66;5048948;27;45441;-65
2022/10/19 08:29:19;;;;;;;;;17.00;13.00;;;;;18.38;77.18;101548.28;5047413;28;45425;-64
2022/10/19 08:31:47;;;;;;;;;16.33;15.00;;;;;18.55;75.19;101538.25;5056647;28;45423;-64
2022/10/19 08:34:15;;;;;;;;;16.67;15.33;;;;;18.69;75.38;101530.03;5047458;28;46278;-65
2022/10/19 08:36:41;;;;;;;;;18.67;13.33;;;;;18.78;75.20;101524.59;5046253;28;45358;-68
2022/10/19 08:39:11;;;;;;;;;18.33;16.33;;;;;18.98;74.08;101529.50;5045821;28;45665;-66
2022/10/19 08:41:57;;;;;;;;;17.00;16.33;;;;;19.11;72.67;101526.59;5053939;28;45644;-66
2022/10/19 08:44:48;;;;;;;;;13.33;13.00;;;;;19.17;72.52;101531.75;5048063;28;46235;-66
2022/10/19 08:47:22;;;;;;;;;20.00;16.00;;;;;19.01;72.12;101537.41;5037204;28;45394;-66
2022/10/19 08:49:48;;;;;;;;;19.67;13.67;;;;;18.92;72.26;101537.59;5051327;28;45441;-63
2022/10/19 08:52:21;;;;;;;;;14.67;13.00;;;;;18.88;72.48;101519.97;5046374;28;45502;-64
2022/10/19 08:54:56;;;;;;;;;19.00;14.67;;;;;18.77;72.48;101514.88;5046183;28;46539;-65
2022/10/19 08:57:36;;;;;;;;;16.00;15.33;;;;;18.65;73.09;101513.31;5043840;28;45617;-64
2022/10/19 09:00:09;;;;;;;;;15.33;13.67;;;;;18.57;73.30;101522.31;5046348;28;45399;-65
2022/10/19 09:02:46;;;;;;;;;14.33;12.33;;;;;18.55;73.56;101527.63;5041789;28;45940;-66
2022/10/19 09:05:33;;;;;;;;;18.67;14.33;;;;;18.63;73.62;101531.03;5047722;28;47721;-64
2022/10/19 09:07:59;;;;;;;;;15.00;13.00;;;;;18.61;73.67;101506.31;5029959;28;45449;-64
2022/10/19 09:10:32;;;;;;;;;15.67;15.67;;;;;18.85;73.24;101528.00;5034104;28;45528;-64
2022/10/19 09:13:13;;;;;;;;;17.00;15.67;;;;;19.14;72.63;101522.09;5025121;28;45871;-63
2022/10/19 09:15:48;;;;;;;;;15.67;11.00;;;;;19.28;71.69;101519.13;5026555;28;45442;-64
2022/10/19 09:18:29;;;;;;;;;14.33;13.33;;;;;19.52;70.76;101517.72;5026513;28;45442;-65
2022/10/19 09:21:08;;;;;;;;;16.00;14.67;;;;;19.60;70.53;101509.56;5027464;28;45719;-64
2022/10/19 09:23:37;;;;;;;;;15.00;13.67;;;;;19.71;69.95;101502.25;5028784;28;45528;-64
2022/10/19 09:26:11;;;;;;;;;17.33;15.33;;;;;19.90;68.74;101498.22;5028756;28;46419;-64
2022/10/19 09:28:52;;;;;;;;;18.00;14.00;;;;;20.81;67.53;101502.97;5058876;28;46472;-64
2022/10/19 09:31:37;;;;;;;;;15.00;14.67;;;;;23.27;61.60;101490.34;5017496;28;45388;-63
2022/10/19 09:34:15;;;;;;;;;15.00;14.33;;;;;24.70;55.81;101481.72;5029426;28;45551;-64
2022/10/19 09:36:45;;;;;;;;;14.00;12.67;;;;;26.37;51.94;101475.44;5048878;28;46628;-64
2022/10/19 09:39:14;;;;;;;;;14.33;13.00;;;;;27.44;48.71;101480.34;5020384;28;45478;-64
2022/10/19 09:42:21;;;;;;;;;12.67;11.67;;;;;28.10;46.65;101479.22;5033603;28;45916;-64
2022/10/19 09:44:49;;;;;;;;;14.00;11.67;;;;;28.49;44.64;101455.34;5028376;28;45473;-64
2022/10/19 09:47:34;;;;;;;;;16.75;14.00;;;;;28.74;42.71;101482.50;5038009;28;45649;-65
2022/10/19 09:50:16;;;;;;;;;12.25;10.25;;;;;28.38;44.07;101484.75;5027494;28;45437;-70
2022/10/19 09:52:44;;;;;;;;;12.25;10.00;;;;;28.02;45.17;101472.53;5024647;28;45418;-68
2022/10/19 09:55:13;;;;;;;;;15.25;12.50;;;;;28.10;44.46;101470.28;5038791;28;45419;-70
2022/10/19 09:57:49;;;;;;;;;12.75;12.25;;;;;28.21;44.14;101461.53;5021819;28;46423;-69
2022/10/19 10:00:22;;;;;;;;;11.25;11.25;;;;;29.22;43.02;101454.38;5034311;28;45343;-69
2022/10/19 10:02:50;;;;;;;;;11.75;11.75;;;;;30.36;40.18;101450.31;5025451;28;45301;-67
2022/10/19 10:05:16;;;;;;;;;11.75;11.75;;;;;30.97;38.99;101455.91;5039058;28;45454;-65
2022/10/19 10:07:42;;;;;;;;;11.50;9.00;;;;;31.25;38.54;101446.59;5035769;28;45943;-66
2022/10/19 10:10:17;;;;;;;;;9.50;9.50;;;;;32.11;36.55;101459.13;5034567;28;45382;-69
2022/10/19 10:12:43;;;;;;;;;12.50;10.75;;;;;31.68;36.91;101449.72;5037943;28;45510;-71
2022/10/19 10:15:16;;;;;;;;;9.25;9.25;;;;;31.97;36.88;101446.66;5031537;28;45571;-67
2022/10/19 10:17:46;;;;;;;;;14.00;11.00;;;;;32.91;34.87;101436.50;5018030;28;45600;-68
2022/10/19 10:20:22;;;;;;;;;10.00;10.00;;;;;33.80;34.13;101434.59;5027372;28;45777;-64
2022/10/19 10:22:55;;;;;;;;;12.80;11.20;;;;;34.21;32.64;101438.31;5027388;28;45620;-64
2022/10/19 10:25:25;;;;;;;;;9.80;9.80;;;;;33.98;33.00;101434.84;5034010;28;45303;-66
2022/10/19 10:28:17;;;;;;;;;10.20;10.20;;;;;34.19;32.76;101424.88;5025548;28;45916;-68
2022/10/19 10:30:45;;;;;;;;;10.60;9.20;;;;;34.49;32.46;101420.44;5034242;28;45375;-66
2022/10/19 10:33:18;;;;;;;;;12.20;10.20;;;;;35.20;31.81;101414.13;5038060;28;45363;-64
2022/10/19 10:35:52;;;;;;;;;11.00;11.00;;;;;35.24;31.58;101404.69;5033955;28;45655;-64
2022/10/19 10:38:24;;;;;;;;;8.00;8.00;;;;;36.17;30.53;101395.03;5040703;28;47477;-64
2022/10/19 10:41:00;;;;;;;;;8.20;8.20;;;;;37.55;29.28;101407.81;5035849;28;45359;-65
2022/10/19 10:43:37;;;;;;;;;8.80;8.20;;;;;38.42;28.65;101399.72;5021176;28;45400;-64
2022/10/19 10:46:06;;;;;;;;;13.20;9.80;;;;;37.12;28.06;101399.34;5032374;28;45380;-64
2022/10/19 10:48:36;;;;;;;;;12.00;11.00;;;;;36.58;29.00;101401.09;5032147;28;45537;-64
2022/10/19 10:51:29;;;;;;;;;11.80;10.40;;;;;36.63;28.37;101385.09;5025430;28;45457;-63
2022/10/19 10:54:13;;;;;;;;;10.60;10.60;;;;;36.85;28.72;101394.78;5023719;28;45318;-65
2022/10/19 10:56:41;;;;;;;;;10.60;9.60;;;;;36.55;28.58;101385.00;5055978;28;45255;-65
2022/10/19 10:59:21;;;;;;;;;9.40;8.40;;;;;36.48;29.32;101378.41;5028966;28;45461;-63
2022/10/19 11:01:59;;;;;;;;;11.40;11.20;;;;;36.65;28.87;101374.91;5028331;28;45526;-65
2022/10/19 11:04:31;;;;;;;;;12.20;9.40;;;;;36.84;28.34;101378.53;5044209;28;45515;-65
2022/10/19 11:07:06;;;;;;;;;13.60;12.20;;;;;35.94;28.69;101369.94;5024773;28;45808;-63
2022/10/19 11:09:41;;;;;;;;;10.60;10.60;;;;;35.54;29.36;101364.69;5031742;28;45712;-64
2022/10/19 11:12:12;;;;;;;;;11.80;10.40;;;;;35.45;30.47;101370.00;5033561;28;45508;-65
2022/10/19 11:14:47;;;;;;;;;11.40;9.20;;;;;35.30;29.72;101360.53;5033213;28;45491;-64
2022/10/19 11:17:24;;;;;;;;;14.20;12.80;;;;;34.99;29.28;101368.78;5034009;28;45380;-62
2022/10/19 11:19:50;;;;;;;;;17.20;11.40;;;;;34.59;30.78;101336.16;5031785;28;47262;-65
2022/10/19 11:22:31;;;;;;;;;8.25;7.25;;;;;34.11;31.95;101348.56;5028554;28;45501;-64
2022/10/19 11:25:24;;;;;;;;;12.20;11.80;;;;;32.91;32.77;101336.13;4990173;28;45835;-66
2022/10/19 11:28:03;;;;;;;;;13.40;10.40;;;;;32.24;34.50;101339.78;5020563;28;45472;-64
2022/10/19 11:30:39;;;;;;;;;10.60;10.00;;;;;32.41;34.63;101324.84;5006085;28;46104;-65
2022/10/19 11:33:05;;;;;;;;;9.20;9.00;;;;;33.97;31.76;101319.00;5031213;28;45536;-65
2022/10/19 11:35:48;;;;;;;;;11.50;10.00;;;;;34.83;30.72;101303.16;5044675;28;45580;-65
2022/10/19 11:38:35;;;;;;;;;13.00;10.00;;;;;34.95;30.47;101299.28;5059427;28;45593;-66
2022/10/19 11:41:01;;;;;;;;;9.40;8.80;;;;;35.08;30.61;101295.47;5043885;28;46925;-64
2022/10/19 11:44:02;;;;;;;;;9.50;8.00;;;;;35.01;29.99;101287.84;5040131;28;45585;-64
2022/10/19 11:46:46;;;;;;;;;11.80;9.00;;;;;35.99;29.48;101280.41;5027514;28;45304;-64
2022/10/19 11:49:30;;;;;;;;;11.00;8.20;;;;;36.02;29.61;101293.75;5028479;28;45789;-65
2022/10/19 11:52:15;;;;;;;;;9.80;9.80;;;;;35.46;30.14;101279.09;5025078;28;46484;-68
2022/10/19 11:55:00;;;;;;;;;9.40;9.40;;;;;34.88;29.80;101286.41;5058753;28;46154;-63
2022/10/19 11:57:37;;;;;;;;;10.60;10.60;;;;;34.42;30.58;101277.84;5030972;28;45364;-66
2022/10/19 12:00:13;;;;;;;;;11.40;9.80;;;;;34.41;30.72;101265.28;5034275;28;45434;-67
2022/10/19 12:03:03;;;;;;;;;12.20;10.80;;;;;33.57;32.24;101263.56;5032350;28;45519;-69
2022/10/19 12:05:56;;;;;;;;;9.00;9.00;;;;;33.29;32.86;101265.09;5024405;28;45438;-66
2022/10/19 12:08:49;;;;;;;;;9.40;9.40;;;;;32.83;32.86;101258.09;5036826;28;45505;-67
2022/10/19 12:11:37;;;;;;;;;10.00;10.00;;;;;32.52;34.04;101265.22;5033477;28;45757;-69
2022/10/19 12:14:08;;;;;;;;;10.00;8.60;;;;;31.13;35.33;101244.59;5020089;28;45469;-71
2022/10/19 12:16:48;;;;;;;;;9.60;8.60;;;;;30.34;37.38;101257.69;5033875;28;45580;-64
2022/10/19 12:19:32;;;;;;;;;6.40;6.40;;;;;29.17;39.19;101268.56;5034306;28;45631;-65
2022/10/19 12:22:01;;;;;;;;;8.75;8.25;;;;;28.15;41.36;101279.66;5031195;28;45372;-63
2022/10/19 12:24:29;;;;;;;;;10.75;9.50;;;;;27.20;43.44;101254.03;5031474;28;45314;-65
2022/10/19 12:26:55;;;;;;;;;11.25;9.75;;;;;26.77;44.64;101258.34;5027319;28;45414;-63
2022/10/19 12:29:30;;;;;;;;;12.75;10.75;;;;;26.22;45.79;101273.91;5031645;28;45464;-66
2022/10/19 12:31:58;;;;;;;;;12.25;11.00;;;;;25.77;47.30;101266.50;5035981;28;45434;-63
2022/10/19 12:34:44;;;;;;;;;12.50;12.25;;;;;25.29;48.50;101265.41;5037130;28;46945;-63
2022/10/19 12:37:25;;;;;;;;;11.50;10.75;;;;;24.84;49.41;101277.47;5035983;28;45522;-63
2022/10/19 12:40:01;;;;;;;;;8.25;8.25;;;;;24.38;50.93;101277.84;5036278;28;45331;-63
2022/10/19 12:42:37;;;;;;;;;9.25;9.25;;;;;24.45;51.06;101273.94;5034908;28;45299;-62
2022/10/19 12:45:17;;;;;;;;;15.75;12.75;;;;;24.47;51.59;101271.22;5034842;28;46190;-63
2022/10/19 12:48:11;;;;;;;;;12.50;11.25;;;;;24.26;51.69;101243.63;5023009;28;46060;-63
2022/10/19 12:50:48;;;;;;;;;12.25;11.50;;;;;24.02;52.49;101242.97;5032832;28;45292;-65
2022/10/19 12:53:34;;;;;;;;;12.00;12.00;;;;;23.54;53.69;101237.06;5031096;28;45406;-65
2022/10/19 12:56:21;;;;;;;;;14.00;12.67;;;;;23.68;54.09;101245.34;5018138;28;46309;-64
2022/10/19 12:59:00;;;;;;;;;14.50;11.25;;;;;23.83;53.94;101227.75;5025311;28;45938;-66
2022/10/19 13:01:35;;;;;;;;;11.00;11.00;;;;;23.78;53.90;101231.59;5036880;28;45485;-64
2022/10/19 13:04:11;;;;;;;;;11.25;10.75;;;;;23.82;53.96;101222.47;5039845;28;45382;-64
2022/10/19 13:06:44;;;;;;;;;13.00;11.33;;;;;23.80;53.83;101208.28;5071423;28;45624;-64
2022/10/19 13:09:30;;;;;;;;;15.00;14.00;;;;;23.61;54.79;101203.78;5037347;28;45466;-64
2022/10/19 13:12:14;;;;;;;;;13.33;10.33;;;;;23.45;55.23;101200.91;5025356;28;45447;-65
2022/10/19 13:14:54;;;;;;;;;14.00;11.67;;;;;23.29;55.34;101205.19;5024157;28;45343;-64
2022/10/19 13:17:42;;;;;;;;;13.33;11.00;;;;;22.96;56.45;101204.81;5023913;28;45462;-64
2022/10/19 13:20:14;;;;;;;;;11.33;11.33;;;;;22.84;57.22;101193.69;5017398;28;45406;-64
2022/10/19 13:22:46;;;;;;;;;12.67;11.67;;;;;22.79;57.89;101184.16;5026866;28;45426;-66
2022/10/19 13:25:27;;;;;;;;;12.00;9.00;;;;;22.66;57.79;101175.78;5025155;28;45542;-65